< < Back
Terminal Aerodrome Forecast


Current Version              Previous Versions:   1  2  3  4  5  6  7  8  9  

Terminal Aerodrome Forecast

982
FTUS42 KTAE 272338
TAFVLD
TAF
KVLD 272338Z 2800/2824 00000KT P6SM OVC250
     FM281000 00000KT 6SM BR SCT015 OVC025
     FM281200 10008KT 6SM RA BR VCTS BKN015 OVC025CB
     FM281600 09006KT P6SM OVC015
     FM282200 09006KT P6SM VCTS BKN025CB=

Latest METAR

999
SAUS70 KWBC 281400 RRL
MTRVLD
METAR KVLD 281353Z 08007KT 10SM SCT031 BKN040 BKN100 18/17 A2986 RMK AO2
SLP117 T01830167


USA.gov is the U.S. government's official web portal to all federal, state and local government web resources and services.